sensor_id;sensor_type;location;lat;lon;timestamp;P1;durP1;ratioP1;P2;durP2;ratioP2
38224;SDS011;24025;48.138;11.428;2023-06-26T00:02:17;15.90;;;5.35;;
38224;SDS011;24025;48.138;11.428;2023-06-26T00:04:49;6.63;;;5.47;;
38224;SDS011;24025;48.138;11.428;2023-06-26T00:07:24;7.70;;;5.35;;
38224;SDS011;24025;48.138;11.428;2023-06-26T00:09:56;10.05;;;5.15;;
38224;SDS011;24025;48.138;11.428;2023-06-26T00:12:30;10.00;;;5.15;;
38224;SDS011;24025;48.138;11.428;2023-06-26T00:15:02;7.38;;;5.57;;
38224;SDS011;24025;48.138;11.428;2023-06-26T00:17:34;7.93;;;5.28;;
38224;SDS011;24025;48.138;11.428;2023-06-26T00:20:09;6.70;;;4.93;;
38224;SDS011;24025;48.138;11.428;2023-06-26T00:22:40;10.23;;;4.97;;
38224;SDS011;24025;48.138;11.428;2023-06-26T00:25:12;6.68;;;5.03;;
38224;SDS011;24025;48.138;11.428;2023-06-26T00:27:44;6.97;;;4.93;;
38224;SDS011;24025;48.138;11.428;2023-06-26T00:30:15;7.57;;;5.38;;
38224;SDS011;24025;48.138;11.428;2023-06-26T00:32:47;8.50;;;4.55;;
38224;SDS011;24025;48.138;11.428;2023-06-26T00:35:19;8.05;;;5.53;;
38224;SDS011;24025;48.138;11.428;2023-06-26T00:37:50;6.45;;;4.68;;
38224;SDS011;24025;48.138;11.428;2023-06-26T00:40:22;7.30;;;4.95;;
38224;SDS011;24025;48.138;11.428;2023-06-26T00:42:54;8.88;;;5.25;;
38224;SDS011;24025;48.138;11.428;2023-06-26T00:45:26;7.93;;;5.00;;
38224;SDS011;24025;48.138;11.428;2023-06-26T00:48:12;4.97;;;4.40;;
38224;SDS011;24025;48.138;11.428;2023-06-26T00:50:44;5.15;;;4.65;;
38224;SDS011;24025;48.138;11.428;2023-06-26T00:53:16;6.03;;;5.10;;
38224;SDS011;24025;48.138;11.428;2023-06-26T00:55:47;6.10;;;5.03;;
38224;SDS011;24025;48.138;11.428;2023-06-26T00:58:21;7.88;;;5.13;;
38224;SDS011;24025;48.138;11.428;2023-06-26T01:00:54;6.32;;;4.95;;
38224;SDS011;24025;48.138;11.428;2023-06-26T01:03:26;5.22;;;4.65;;
38224;SDS011;24025;48.138;11.428;2023-06-26T01:05:58;7.05;;;5.05;;
38224;SDS011;24025;48.138;11.428;2023-06-26T01:08:31;6.97;;;4.72;;
38224;SDS011;24025;48.138;11.428;2023-06-26T01:11:02;5.18;;;4.60;;
38224;SDS011;24025;48.138;11.428;2023-06-26T01:13:34;6.28;;;4.45;;
38224;SDS011;24025;48.138;11.428;2023-06-26T01:16:07;5.43;;;4.35;;
38224;SDS011;24025;48.138;11.428;2023-06-26T01:18:40;6.93;;;5.18;;
38224;SDS011;24025;48.138;11.428;2023-06-26T01:21:16;5.93;;;4.75;;
38224;SDS011;24025;48.138;11.428;2023-06-26T01:24:04;9.48;;;5.50;;
38224;SDS011;24025;48.138;11.428;2023-06-26T01:26:58;7.28;;;5.30;;
38224;SDS011;24025;48.138;11.428;2023-06-26T01:29:32;10.52;;;5.13;;
38224;SDS011;24025;48.138;11.428;2023-06-26T01:32:04;5.60;;;4.65;;
38224;SDS011;24025;48.138;11.428;2023-06-26T01:34:36;7.70;;;4.75;;
38224;SDS011;24025;48.138;11.428;2023-06-26T01:39:40;6.78;;;4.88;;
38224;SDS011;24025;48.138;11.428;2023-06-26T01:42:11;8.23;;;5.18;;
38224;SDS011;24025;48.138;11.428;2023-06-26T01:44:46;8.32;;;5.28;;
38224;SDS011;24025;48.138;11.428;2023-06-26T01:47:19;10.45;;;4.93;;
38224;SDS011;24025;48.138;11.428;2023-06-26T01:50:01;9.30;;;5.18;;
38224;SDS011;24025;48.138;11.428;2023-06-26T01:55:40;5.75;;;4.45;;
38224;SDS011;24025;48.138;11.428;2023-06-26T01:58:13;6.40;;;4.50;;
38224;SDS011;24025;48.138;11.428;2023-06-26T02:00:45;8.95;;;5.30;;
38224;SDS011;24025;48.138;11.428;2023-06-26T02:05:50;5.37;;;4.33;;
38224;SDS011;24025;48.138;11.428;2023-06-26T02:08:22;6.28;;;4.93;;
38224;SDS011;24025;48.138;11.428;2023-06-26T02:10:54;6.43;;;4.43;;
38224;SDS011;24025;48.138;11.428;2023-06-26T02:13:26;6.93;;;5.00;;
38224;SDS011;24025;48.138;11.428;2023-06-26T02:15:57;7.10;;;4.85;;
38224;SDS011;24025;48.138;11.428;2023-06-26T02:18:29;5.95;;;4.85;;
38224;SDS011;24025;48.138;11.428;2023-06-26T02:21:02;6.00;;;4.95;;
38224;SDS011;24025;48.138;11.428;2023-06-26T02:23:34;11.38;;;4.95;;
38224;SDS011;24025;48.138;11.428;2023-06-26T02:26:06;7.25;;;5.10;;
38224;SDS011;24025;48.138;11.428;2023-06-26T02:28:38;6.05;;;5.00;;
38224;SDS011;24025;48.138;11.428;2023-06-26T02:31:09;7.03;;;5.32;;
38224;SDS011;24025;48.138;11.428;2023-06-26T02:33:41;8.90;;;5.18;;
38224;SDS011;24025;48.138;11.428;2023-06-26T02:36:13;5.95;;;4.80;;
38224;SDS011;24025;48.138;11.428;2023-06-26T02:38:44;6.00;;;4.72;;
38224;SDS011;24025;48.138;11.428;2023-06-26T02:41:16;5.75;;;4.70;;
38224;SDS011;24025;48.138;11.428;2023-06-26T02:43:47;8.15;;;5.22;;
38224;SDS011;24025;48.138;11.428;2023-06-26T02:46:19;7.50;;;4.63;;
38224;SDS011;24025;48.138;11.428;2023-06-26T02:48:51;9.90;;;5.13;;
38224;SDS011;24025;48.138;11.428;2023-06-26T02:51:23;7.25;;;5.15;;
38224;SDS011;24025;48.138;11.428;2023-06-26T02:53:54;6.70;;;5.57;;
38224;SDS011;24025;48.138;11.428;2023-06-26T02:56:26;8.73;;;4.82;;
38224;SDS011;24025;48.138;11.428;2023-06-26T02:59:01;6.68;;;5.20;;
38224;SDS011;24025;48.138;11.428;2023-06-26T03:01:32;7.82;;;5.15;;
38224;SDS011;24025;48.138;11.428;2023-06-26T03:04:04;7.50;;;5.32;;
38224;SDS011;24025;48.138;11.428;2023-06-26T03:06:36;6.45;;;5.05;;
38224;SDS011;24025;48.138;11.428;2023-06-26T03:09:08;7.47;;;5.15;;
38224;SDS011;24025;48.138;11.428;2023-06-26T03:11:39;6.72;;;5.28;;
38224;SDS011;24025;48.138;11.428;2023-06-26T03:14:11;7.30;;;5.18;;
38224;SDS011;24025;48.138;11.428;2023-06-26T03:16:42;6.43;;;4.93;;
38224;SDS011;24025;48.138;11.428;2023-06-26T03:19:14;7.03;;;5.03;;
38224;SDS011;24025;48.138;11.428;2023-06-26T03:21:46;11.48;;;5.28;;
38224;SDS011;24025;48.138;11.428;2023-06-26T03:24:17;5.53;;;4.93;;
38224;SDS011;24025;48.138;11.428;2023-06-26T03:26:49;6.80;;;5.55;;
38224;SDS011;24025;48.138;11.428;2023-06-26T03:29:21;7.75;;;5.15;;
38224;SDS011;24025;48.138;11.428;2023-06-26T03:31:52;6.85;;;5.10;;
38224;SDS011;24025;48.138;11.428;2023-06-26T03:34:24;7.18;;;5.07;;
38224;SDS011;24025;48.138;11.428;2023-06-26T03:36:55;8.98;;;6.45;;
38224;SDS011;24025;48.138;11.428;2023-06-26T03:39:27;6.60;;;4.97;;
38224;SDS011;24025;48.138;11.428;2023-06-26T03:41:59;7.47;;;5.28;;
38224;SDS011;24025;48.138;11.428;2023-06-26T03:44:32;7.65;;;5.03;;
38224;SDS011;24025;48.138;11.428;2023-06-26T03:47:03;8.73;;;5.70;;
38224;SDS011;24025;48.138;11.428;2023-06-26T03:49:35;8.95;;;5.43;;
38224;SDS011;24025;48.138;11.428;2023-06-26T03:52:07;6.82;;;5.47;;
38224;SDS011;24025;48.138;11.428;2023-06-26T03:54:38;7.88;;;5.10;;
38224;SDS011;24025;48.138;11.428;2023-06-26T03:57:10;5.80;;;4.88;;
38224;SDS011;24025;48.138;11.428;2023-06-26T03:59:42;7.38;;;5.10;;
38224;SDS011;24025;48.138;11.428;2023-06-26T04:02:13;9.55;;;5.22;;
38224;SDS011;24025;48.138;11.428;2023-06-26T04:04:45;7.60;;;4.90;;
38224;SDS011;24025;48.138;11.428;2023-06-26T04:07:17;8.35;;;5.95;;
38224;SDS011;24025;48.138;11.428;2023-06-26T04:12:20;7.70;;;5.55;;
38224;SDS011;24025;48.138;11.428;2023-06-26T04:14:52;8.02;;;4.88;;
38224;SDS011;24025;48.138;11.428;2023-06-26T04:17:23;7.90;;;4.47;;
38224;SDS011;24025;48.138;11.428;2023-06-26T04:19:55;9.13;;;5.15;;
38224;SDS011;24025;48.138;11.428;2023-06-26T04:22:27;8.35;;;4.57;;
38224;SDS011;24025;48.138;11.428;2023-06-26T04:25:01;7.30;;;5.30;;
38224;SDS011;24025;48.138;11.428;2023-06-26T04:27:34;8.48;;;5.72;;
38224;SDS011;24025;48.138;11.428;2023-06-26T04:30:09;7.00;;;4.97;;
38224;SDS011;24025;48.138;11.428;2023-06-26T04:32:41;7.05;;;5.47;;
38224;SDS011;24025;48.138;11.428;2023-06-26T04:35:12;7.82;;;5.55;;
38224;SDS011;24025;48.138;11.428;2023-06-26T04:37:44;9.68;;;5.40;;
38224;SDS011;24025;48.138;11.428;2023-06-26T04:40:16;8.20;;;5.35;;
38224;SDS011;24025;48.138;11.428;2023-06-26T04:42:48;8.88;;;5.43;;
38224;SDS011;24025;48.138;11.428;2023-06-26T04:45:19;7.55;;;5.45;;
38224;SDS011;24025;48.138;11.428;2023-06-26T04:47:51;7.43;;;5.70;;
38224;SDS011;24025;48.138;11.428;2023-06-26T04:50:22;10.35;;;5.15;;
38224;SDS011;24025;48.138;11.428;2023-06-26T04:52:54;6.75;;;5.22;;
38224;SDS011;24025;48.138;11.428;2023-06-26T04:55:26;6.20;;;5.30;;
38224;SDS011;24025;48.138;11.428;2023-06-26T04:57:59;6.95;;;5.10;;
38224;SDS011;24025;48.138;11.428;2023-06-26T05:00:30;6.90;;;5.38;;
38224;SDS011;24025;48.138;11.428;2023-06-26T05:03:02;6.10;;;5.00;;
38224;SDS011;24025;48.138;11.428;2023-06-26T05:05:35;9.30;;;5.50;;
38224;SDS011;24025;48.138;11.428;2023-06-26T05:08:16;6.85;;;5.93;;
38224;SDS011;24025;48.138;11.428;2023-06-26T05:10:49;7.43;;;4.63;;
38224;SDS011;24025;48.138;11.428;2023-06-26T05:13:21;7.78;;;5.40;;
38224;SDS011;24025;48.138;11.428;2023-06-26T05:15:52;7.95;;;5.95;;
38224;SDS011;24025;48.138;11.428;2023-06-26T05:18:24;7.75;;;5.68;;
38224;SDS011;24025;48.138;11.428;2023-06-26T05:20:56;6.75;;;4.95;;
38224;SDS011;24025;48.138;11.428;2023-06-26T05:23:30;7.93;;;5.90;;
38224;SDS011;24025;48.138;11.428;2023-06-26T05:26:03;6.65;;;5.10;;
38224;SDS011;24025;48.138;11.428;2023-06-26T05:28:35;9.18;;;5.70;;
38224;SDS011;24025;48.138;11.428;2023-06-26T05:31:07;6.82;;;5.70;;
38224;SDS011;24025;48.138;11.428;2023-06-26T05:33:39;7.50;;;6.00;;
38224;SDS011;24025;48.138;11.428;2023-06-26T05:36:15;6.97;;;5.00;;
38224;SDS011;24025;48.138;11.428;2023-06-26T05:38:47;8.10;;;5.30;;
38224;SDS011;24025;48.138;11.428;2023-06-26T05:41:21;6.53;;;5.50;;
38224;SDS011;24025;48.138;11.428;2023-06-26T05:43:53;9.38;;;4.97;;
38224;SDS011;24025;48.138;11.428;2023-06-26T05:46:28;7.35;;;5.03;;
38224;SDS011;24025;48.138;11.428;2023-06-26T05:48:59;8.30;;;5.63;;
38224;SDS011;24025;48.138;11.428;2023-06-26T05:51:32;8.38;;;5.22;;
38224;SDS011;24025;48.138;11.428;2023-06-26T05:54:04;8.43;;;5.35;;
38224;SDS011;24025;48.138;11.428;2023-06-26T05:59:07;7.00;;;5.30;;
38224;SDS011;24025;48.138;11.428;2023-06-26T06:04:11;10.02;;;5.55;;
38224;SDS011;24025;48.138;11.428;2023-06-26T06:06:43;7.13;;;4.93;;
38224;SDS011;24025;48.138;11.428;2023-06-26T06:09:14;7.50;;;5.30;;
38224;SDS011;24025;48.138;11.428;2023-06-26T06:11:46;10.18;;;5.57;;
38224;SDS011;24025;48.138;11.428;2023-06-26T06:14:18;10.63;;;5.53;;
38224;SDS011;24025;48.138;11.428;2023-06-26T06:16:49;7.38;;;5.65;;
38224;SDS011;24025;48.138;11.428;2023-06-26T06:19:21;7.60;;;5.35;;
38224;SDS011;24025;48.138;11.428;2023-06-26T06:21:53;7.68;;;5.07;;
38224;SDS011;24025;48.138;11.428;2023-06-26T06:24:24;6.13;;;4.97;;
38224;SDS011;24025;48.138;11.428;2023-06-26T06:26:56;8.38;;;4.78;;
38224;SDS011;24025;48.138;11.428;2023-06-26T06:29:31;6.95;;;5.10;;
38224;SDS011;24025;48.138;11.428;2023-06-26T06:32:02;7.38;;;4.88;;
38224;SDS011;24025;48.138;11.428;2023-06-26T06:37:06;5.60;;;4.90;;
38224;SDS011;24025;48.138;11.428;2023-06-26T06:39:38;7.82;;;4.80;;
38224;SDS011;24025;48.138;11.428;2023-06-26T06:42:09;6.68;;;4.60;;
38224;SDS011;24025;48.138;11.428;2023-06-26T06:44:41;9.60;;;4.80;;
38224;SDS011;24025;48.138;11.428;2023-06-26T06:47:13;8.45;;;4.60;;
38224;SDS011;24025;48.138;11.428;2023-06-26T06:49:44;6.18;;;4.82;;
38224;SDS011;24025;48.138;11.428;2023-06-26T06:52:16;9.73;;;5.13;;
38224;SDS011;24025;48.138;11.428;2023-06-26T06:54:57;5.68;;;4.45;;
38224;SDS011;24025;48.138;11.428;2023-06-26T06:57:36;6.07;;;4.50;;
38224;SDS011;24025;48.138;11.428;2023-06-26T07:00:11;5.85;;;4.32;;
38224;SDS011;24025;48.138;11.428;2023-06-26T07:02:45;6.32;;;4.57;;
38224;SDS011;24025;48.138;11.428;2023-06-26T07:05:17;6.75;;;4.93;;
38224;SDS011;24025;48.138;11.428;2023-06-26T07:07:49;10.85;;;4.35;;
38224;SDS011;24025;48.138;11.428;2023-06-26T07:10:21;8.68;;;4.80;;
38224;SDS011;24025;48.138;11.428;2023-06-26T07:12:52;6.80;;;4.68;;
38224;SDS011;24025;48.138;11.428;2023-06-26T07:15:24;5.40;;;4.65;;
38224;SDS011;24025;48.138;11.428;2023-06-26T07:17:57;9.18;;;4.28;;
38224;SDS011;24025;48.138;11.428;2023-06-26T07:23:01;7.10;;;5.30;;
38224;SDS011;24025;48.138;11.428;2023-06-26T07:25:32;7.70;;;5.25;;
38224;SDS011;24025;48.138;11.428;2023-06-26T07:28:09;5.53;;;4.93;;
38224;SDS011;24025;48.138;11.428;2023-06-26T07:30:42;6.38;;;4.90;;
38224;SDS011;24025;48.138;11.428;2023-06-26T07:33:14;5.35;;;4.57;;
38224;SDS011;24025;48.138;11.428;2023-06-26T07:35:45;6.07;;;5.20;;
38224;SDS011;24025;48.138;11.428;2023-06-26T07:38:17;8.02;;;5.05;;
38224;SDS011;24025;48.138;11.428;2023-06-26T07:40:49;6.25;;;4.53;;
38224;SDS011;24025;48.138;11.428;2023-06-26T07:45:53;6.65;;;4.53;;
38224;SDS011;24025;48.138;11.428;2023-06-26T07:48:25;5.70;;;5.03;;
38224;SDS011;24025;48.138;11.428;2023-06-26T07:53:28;7.97;;;5.23;;
38224;SDS011;24025;48.138;11.428;2023-06-26T07:55:59;8.27;;;5.13;;
38224;SDS011;24025;48.138;11.428;2023-06-26T07:58:31;7.18;;;5.10;;
38224;SDS011;24025;48.138;11.428;2023-06-26T08:01:03;6.07;;;5.13;;
38224;SDS011;24025;48.138;11.428;2023-06-26T08:03:34;4.82;;;4.38;;
38224;SDS011;24025;48.138;11.428;2023-06-26T08:06:06;7.80;;;5.40;;
38224;SDS011;24025;48.138;11.428;2023-06-26T08:08:41;5.85;;;4.95;;
38224;SDS011;24025;48.138;11.428;2023-06-26T08:11:12;8.32;;;4.85;;
38224;SDS011;24025;48.138;11.428;2023-06-26T08:13:44;7.70;;;5.03;;
38224;SDS011;24025;48.138;11.428;2023-06-26T08:16:15;5.78;;;5.15;;
38224;SDS011;24025;48.138;11.428;2023-06-26T08:18:47;9.68;;;5.47;;
38224;SDS011;24025;48.138;11.428;2023-06-26T08:21:19;5.40;;;4.57;;
38224;SDS011;24025;48.138;11.428;2023-06-26T08:23:50;7.18;;;4.88;;
38224;SDS011;24025;48.138;11.428;2023-06-26T08:26:22;6.07;;;4.97;;
38224;SDS011;24025;48.138;11.428;2023-06-26T08:28:54;5.88;;;5.00;;
38224;SDS011;24025;48.138;11.428;2023-06-26T08:33:57;7.00;;;5.13;;
38224;SDS011;24025;48.138;11.428;2023-06-26T08:36:29;4.90;;;4.40;;
38224;SDS011;24025;48.138;11.428;2023-06-26T08:39:01;7.03;;;4.63;;
38224;SDS011;24025;48.138;11.428;2023-06-26T08:41:34;5.95;;;4.45;;
38224;SDS011;24025;48.138;11.428;2023-06-26T08:44:06;6.22;;;4.72;;
38224;SDS011;24025;48.138;11.428;2023-06-26T08:46:37;6.82;;;4.38;;
38224;SDS011;24025;48.138;11.428;2023-06-26T08:51:49;6.00;;;4.40;;
38224;SDS011;24025;48.138;11.428;2023-06-26T08:54:26;7.50;;;4.75;;
38224;SDS011;24025;48.138;11.428;2023-06-26T08:57:01;5.75;;;4.35;;
38224;SDS011;24025;48.138;11.428;2023-06-26T08:59:35;5.72;;;4.35;;
38224;SDS011;24025;48.138;11.428;2023-06-26T09:02:06;5.15;;;4.15;;
38224;SDS011;24025;48.138;11.428;2023-06-26T09:04:39;4.70;;;4.30;;
38224;SDS011;24025;48.138;11.428;2023-06-26T09:07:11;7.65;;;4.40;;
38224;SDS011;24025;48.138;11.428;2023-06-26T09:12:15;4.32;;;3.92;;
38224;SDS011;24025;48.138;11.428;2023-06-26T09:14:47;6.47;;;4.13;;
38224;SDS011;24025;48.138;11.428;2023-06-26T09:17:19;6.22;;;4.53;;
38224;SDS011;24025;48.138;11.428;2023-06-26T09:19:56;6.88;;;3.80;;
38224;SDS011;24025;48.138;11.428;2023-06-26T09:22:27;4.80;;;4.18;;
38224;SDS011;24025;48.138;11.428;2023-06-26T09:24:59;6.43;;;3.88;;
38224;SDS011;24025;48.138;11.428;2023-06-26T09:27:32;4.10;;;3.70;;
38224;SDS011;24025;48.138;11.428;2023-06-26T09:30:03;4.18;;;3.78;;
38224;SDS011;24025;48.138;11.428;2023-06-26T09:32:37;4.32;;;3.53;;
38224;SDS011;24025;48.138;11.428;2023-06-26T09:37:41;4.53;;;3.55;;
38224;SDS011;24025;48.138;11.428;2023-06-26T09:40:13;5.32;;;3.53;;
38224;SDS011;24025;48.138;11.428;2023-06-26T09:42:46;3.60;;;2.80;;
38224;SDS011;24025;48.138;11.428;2023-06-26T09:45:17;3.90;;;3.60;;
38224;SDS011;24025;48.138;11.428;2023-06-26T09:47:50;3.85;;;2.70;;
38224;SDS011;24025;48.138;11.428;2023-06-26T09:50:22;4.57;;;3.55;;
38224;SDS011;24025;48.138;11.428;2023-06-26T09:52:56;5.30;;;3.30;;
38224;SDS011;24025;48.138;11.428;2023-06-26T09:55:29;5.72;;;3.40;;
38224;SDS011;24025;48.138;11.428;2023-06-26T09:58:05;3.78;;;2.90;;
38224;SDS011;24025;48.138;11.428;2023-06-26T10:00:37;4.18;;;2.90;;
38224;SDS011;24025;48.138;11.428;2023-06-26T10:03:12;5.65;;;3.05;;
38224;SDS011;24025;48.138;11.428;2023-06-26T10:05:44;3.45;;;2.85;;
38224;SDS011;24025;48.138;11.428;2023-06-26T10:08:18;4.07;;;3.67;;
38224;SDS011;24025;48.138;11.428;2023-06-26T10:13:29;4.18;;;3.42;;
38224;SDS011;24025;48.138;11.428;2023-06-26T10:16:06;3.35;;;3.05;;
38224;SDS011;24025;48.138;11.428;2023-06-26T10:18:40;3.30;;;3.00;;
38224;SDS011;24025;48.138;11.428;2023-06-26T10:21:12;5.43;;;3.00;;
38224;SDS011;24025;48.138;11.428;2023-06-26T10:23:45;7.78;;;3.40;;
38224;SDS011;24025;48.138;11.428;2023-06-26T10:26:16;3.70;;;3.30;;
38224;SDS011;24025;48.138;11.428;2023-06-26T10:28:52;3.45;;;3.15;;
38224;SDS011;24025;48.138;11.428;2023-06-26T10:31:26;4.25;;;2.92;;
38224;SDS011;24025;48.138;11.428;2023-06-26T10:34:01;3.88;;;3.47;;
38224;SDS011;24025;48.138;11.428;2023-06-26T10:36:33;3.67;;;3.25;;
38224;SDS011;24025;48.138;11.428;2023-06-26T10:39:07;5.97;;;3.38;;
38224;SDS011;24025;48.138;11.428;2023-06-26T10:44:40;3.70;;;3.00;;
38224;SDS011;24025;48.138;11.428;2023-06-26T10:47:32;4.78;;;3.30;;
38224;SDS011;24025;48.138;11.428;2023-06-26T10:56:06;3.90;;;3.25;;
38224;SDS011;24025;48.138;11.428;2023-06-26T11:01:14;4.75;;;3.42;;
38224;SDS011;24025;48.138;11.428;2023-06-26T11:06:30;4.35;;;3.72;;
38224;SDS011;24025;48.138;11.428;2023-06-26T11:14:28;3.95;;;3.35;;
38224;SDS011;24025;48.138;11.428;2023-06-26T11:17:02;12.40;;;3.25;;
38224;SDS011;24025;48.138;11.428;2023-06-26T11:19:34;5.55;;;3.60;;
38224;SDS011;24025;48.138;11.428;2023-06-26T11:22:07;4.68;;;3.63;;
38224;SDS011;24025;48.138;11.428;2023-06-26T11:24:38;5.20;;;3.65;;
38224;SDS011;24025;48.138;11.428;2023-06-26T11:27:12;6.72;;;3.67;;
38224;SDS011;24025;48.138;11.428;2023-06-26T11:29:48;4.75;;;3.40;;
38224;SDS011;24025;48.138;11.428;2023-06-26T11:32:22;5.28;;;3.55;;
38224;SDS011;24025;48.138;11.428;2023-06-26T11:34:57;4.43;;;3.65;;
38224;SDS011;24025;48.138;11.428;2023-06-26T11:40:15;3.97;;;3.45;;
38224;SDS011;24025;48.138;11.428;2023-06-26T11:42:50;5.10;;;3.97;;
38224;SDS011;24025;48.138;11.428;2023-06-26T11:45:22;5.03;;;3.80;;
38224;SDS011;24025;48.138;11.428;2023-06-26T11:47:56;4.20;;;3.60;;
38224;SDS011;24025;48.138;11.428;2023-06-26T11:50:29;8.73;;;3.80;;
38224;SDS011;24025;48.138;11.428;2023-06-26T11:53:01;4.60;;;3.80;;
38224;SDS011;24025;48.138;11.428;2023-06-26T11:55:40;4.80;;;4.18;;
38224;SDS011;24025;48.138;11.428;2023-06-26T11:58:13;6.63;;;4.07;;
38224;SDS011;24025;48.138;11.428;2023-06-26T12:00:47;6.05;;;4.07;;
38224;SDS011;24025;48.138;11.428;2023-06-26T12:03:19;5.05;;;3.88;;
38224;SDS011;24025;48.138;11.428;2023-06-26T12:05:52;6.35;;;3.88;;
38224;SDS011;24025;48.138;11.428;2023-06-26T12:08:24;4.25;;;3.83;;
38224;SDS011;24025;48.138;11.428;2023-06-26T12:10:55;4.35;;;3.95;;
38224;SDS011;24025;48.138;11.428;2023-06-26T12:13:27;5.13;;;4.00;;
38224;SDS011;24025;48.138;11.428;2023-06-26T12:18:36;4.15;;;3.67;;
38224;SDS011;24025;48.138;11.428;2023-06-26T12:21:08;6.65;;;4.45;;
38224;SDS011;24025;48.138;11.428;2023-06-26T12:23:40;5.72;;;4.55;;
38224;SDS011;24025;48.138;11.428;2023-06-26T12:26:21;6.85;;;3.90;;
38224;SDS011;24025;48.138;11.428;2023-06-26T12:28:53;4.32;;;3.92;;
38224;SDS011;24025;48.138;11.428;2023-06-26T12:31:24;5.65;;;4.00;;
38224;SDS011;24025;48.138;11.428;2023-06-26T12:33:56;6.13;;;3.88;;
38224;SDS011;24025;48.138;11.428;2023-06-26T12:36:28;4.88;;;4.38;;
38224;SDS011;24025;48.138;11.428;2023-06-26T12:39:00;4.20;;;3.78;;
38224;SDS011;24025;48.138;11.428;2023-06-26T12:41:32;4.65;;;4.25;;
38224;SDS011;24025;48.138;11.428;2023-06-26T12:44:03;5.50;;;3.90;;
38224;SDS011;24025;48.138;11.428;2023-06-26T12:46:35;4.60;;;4.13;;
38224;SDS011;24025;48.138;11.428;2023-06-26T12:49:07;4.43;;;4.03;;
38224;SDS011;24025;48.138;11.428;2023-06-26T12:51:59;4.75;;;4.35;;
38224;SDS011;24025;48.138;11.428;2023-06-26T12:54:35;8.68;;;4.78;;
38224;SDS011;24025;48.138;11.428;2023-06-26T12:57:08;5.68;;;4.55;;
38224;SDS011;24025;48.138;11.428;2023-06-26T12:59:40;6.07;;;4.15;;
38224;SDS011;24025;48.138;11.428;2023-06-26T13:02:12;7.10;;;4.10;;
38224;SDS011;24025;48.138;11.428;2023-06-26T13:04:44;5.53;;;4.40;;
38224;SDS011;24025;48.138;11.428;2023-06-26T13:07:16;8.25;;;4.55;;
38224;SDS011;24025;48.138;11.428;2023-06-26T13:09:48;4.82;;;4.38;;
38224;SDS011;24025;48.138;11.428;2023-06-26T13:12:20;4.63;;;4.22;;
38224;SDS011;24025;48.138;11.428;2023-06-26T13:14:51;4.85;;;4.22;;
38224;SDS011;24025;48.138;11.428;2023-06-26T13:19:55;5.00;;;4.22;;
38224;SDS011;24025;48.138;11.428;2023-06-26T13:22:26;7.22;;;4.57;;
38224;SDS011;24025;48.138;11.428;2023-06-26T13:24:58;5.82;;;4.65;;
38224;SDS011;24025;48.138;11.428;2023-06-26T13:27:29;8.85;;;4.28;;
38224;SDS011;24025;48.138;11.428;2023-06-26T13:30:01;4.40;;;4.00;;
38224;SDS011;24025;48.138;11.428;2023-06-26T13:32:33;5.40;;;4.57;;
38224;SDS011;24025;48.138;11.428;2023-06-26T13:35:05;4.57;;;4.18;;
38224;SDS011;24025;48.138;11.428;2023-06-26T13:37:37;4.78;;;4.38;;
38224;SDS011;24025;48.138;11.428;2023-06-26T13:40:08;7.18;;;4.10;;
38224;SDS011;24025;48.138;11.428;2023-06-26T13:42:41;7.10;;;4.15;;
38224;SDS011;24025;48.138;11.428;2023-06-26T13:45:13;6.47;;;4.93;;
38224;SDS011;24025;48.138;11.428;2023-06-26T13:48:00;5.82;;;4.25;;
38224;SDS011;24025;48.138;11.428;2023-06-26T13:50:32;6.95;;;4.65;;
38224;SDS011;24025;48.138;11.428;2023-06-26T13:53:23;6.20;;;4.40;;
38224;SDS011;24025;48.138;11.428;2023-06-26T13:58:26;4.57;;;4.18;;
38224;SDS011;24025;48.138;11.428;2023-06-26T14:00:59;5.60;;;4.28;;
38224;SDS011;24025;48.138;11.428;2023-06-26T14:03:31;5.18;;;4.60;;
38224;SDS011;24025;48.138;11.428;2023-06-26T14:06:03;7.05;;;4.72;;
38224;SDS011;24025;48.138;11.428;2023-06-26T14:08:35;11.43;;;4.63;;
38224;SDS011;24025;48.138;11.428;2023-06-26T14:11:07;6.35;;;4.13;;
38224;SDS011;24025;48.138;11.428;2023-06-26T14:13:38;5.20;;;4.47;;
38224;SDS011;24025;48.138;11.428;2023-06-26T14:16:10;7.03;;;4.60;;
38224;SDS011;24025;48.138;11.428;2023-06-26T14:18:42;5.57;;;4.40;;
38224;SDS011;24025;48.138;11.428;2023-06-26T14:21:13;5.20;;;3.60;;
38224;SDS011;24025;48.138;11.428;2023-06-26T14:23:45;5.72;;;4.22;;
38224;SDS011;24025;48.138;11.428;2023-06-26T14:26:17;4.93;;;4.43;;
38224;SDS011;24025;48.138;11.428;2023-06-26T14:28:49;4.97;;;4.43;;
38224;SDS011;24025;48.138;11.428;2023-06-26T14:31:20;5.07;;;4.57;;
38224;SDS011;24025;48.138;11.428;2023-06-26T14:33:52;5.10;;;4.63;;
38224;SDS011;24025;48.138;11.428;2023-06-26T14:36:24;5.88;;;5.05;;
38224;SDS011;24025;48.138;11.428;2023-06-26T14:38:56;5.50;;;4.18;;
38224;SDS011;24025;48.138;11.428;2023-06-26T14:41:29;5.93;;;3.83;;
38224;SDS011;24025;48.138;11.428;2023-06-26T14:44:02;5.97;;;4.82;;
38224;SDS011;24025;48.138;11.428;2023-06-26T14:46:34;6.85;;;4.28;;
38224;SDS011;24025;48.138;11.428;2023-06-26T14:49:06;6.72;;;4.18;;
38224;SDS011;24025;48.138;11.428;2023-06-26T14:51:37;4.85;;;4.40;;
38224;SDS011;24025;48.138;11.428;2023-06-26T14:54:11;6.15;;;4.40;;
38224;SDS011;24025;48.138;11.428;2023-06-26T14:56:42;5.63;;;4.63;;
38224;SDS011;24025;48.138;11.428;2023-06-26T14:59:16;5.97;;;4.50;;
38224;SDS011;24025;48.138;11.428;2023-06-26T15:01:48;5.55;;;4.22;;
38224;SDS011;24025;48.138;11.428;2023-06-26T15:04:22;5.18;;;4.63;;
38224;SDS011;24025;48.138;11.428;2023-06-26T15:06:56;4.72;;;4.32;;
38224;SDS011;24025;48.138;11.428;2023-06-26T15:09:28;4.18;;;3.78;;
38224;SDS011;24025;48.138;11.428;2023-06-26T15:11:59;5.00;;;4.07;;
38224;SDS011;24025;48.138;11.428;2023-06-26T15:14:31;7.97;;;4.25;;
38224;SDS011;24025;48.138;11.428;2023-06-26T15:17:03;4.60;;;4.10;;
38224;SDS011;24025;48.138;11.428;2023-06-26T15:19:35;6.57;;;4.07;;
38224;SDS011;24025;48.138;11.428;2023-06-26T15:22:07;5.65;;;3.95;;
